createdAt,value
2022-10-28T00:02:18.560Z,1.92
2022-10-28T00:06:23.045Z,1.83
2022-10-28T00:10:24.759Z,2.03
2022-10-28T00:14:26.613Z,2.97
2022-10-28T00:18:29.493Z,1.90
2022-10-28T00:22:31.228Z,2.08
2022-10-28T00:26:36.441Z,1.83
2022-10-28T00:30:38.154Z,1.85
2022-10-28T00:34:39.811Z,1.48
2022-10-28T00:38:42.796Z,1.90
2022-10-28T00:42:44.441Z,1.58
2022-10-28T00:46:49.450Z,1.73
2022-10-28T00:50:54.056Z,4.03
2022-10-28T00:54:59.619Z,4.00
2022-10-28T00:59:04.570Z,3.65
2022-10-28T01:03:06.349Z,3.22
2022-10-28T01:07:08.253Z,2.58
2022-10-28T01:11:36.891Z,3.30
2022-10-28T01:16:07.988Z,3.00
2022-10-28T01:20:46.370Z,2.30
2022-10-28T01:25:30.428Z,2.10
2022-10-28T01:29:56.206Z,1.85
2022-10-28T01:34:27.587Z,3.05
2022-10-28T01:38:41.635Z,3.90
2022-10-28T01:42:50.338Z,2.50
2022-10-28T01:47:01.903Z,2.85
2022-10-28T01:51:38.582Z,2.30
2022-10-28T01:55:47.678Z,2.85
2022-10-28T01:59:50.073Z,2.10
2022-10-28T02:03:52.272Z,2.20
2022-10-28T02:08:01.494Z,2.85
2022-10-28T02:12:25.012Z,4.30
2022-10-28T02:16:38.614Z,3.33
2022-10-28T02:21:00.882Z,5.07
2022-10-28T02:25:47.060Z,3.13
2022-10-28T02:29:54.783Z,2.95
2022-10-28T02:34:02.702Z,2.58
2022-10-28T02:38:15.568Z,2.60
2022-10-28T02:42:24.131Z,2.42
2022-10-28T02:46:28.113Z,2.20
2022-10-28T02:50:36.637Z,2.72
2022-10-28T02:54:43.843Z,2.83
2022-10-28T02:58:45.905Z,2.33
2022-10-28T03:02:47.941Z,2.72
2022-10-28T03:06:49.845Z,3.35
2022-10-28T03:10:51.765Z,2.88
2022-10-28T03:14:53.722Z,3.60
2022-10-28T03:18:55.749Z,4.38
2022-10-28T03:22:57.855Z,3.08
2022-10-28T03:27:00.022Z,3.10
2022-10-28T03:31:02.298Z,2.55
2022-10-28T03:35:04.745Z,3.15
2022-10-28T03:39:06.901Z,3.38
2022-10-28T03:43:09.032Z,4.40
2022-10-28T03:47:11.015Z,2.97
2022-10-28T03:51:13.091Z,2.97
2022-10-28T03:55:15.194Z,4.53
2022-10-28T03:59:19.312Z,3.30
2022-10-28T04:03:23.696Z,4.32
2022-10-28T04:07:25.543Z,3.70
2022-10-28T04:11:27.645Z,3.58
2022-10-28T04:15:30.212Z,4.32
2022-10-28T04:19:32.158Z,3.92
2022-10-28T04:23:34.295Z,4.00
2022-10-28T04:27:36.619Z,4.22
2022-10-28T04:31:38.712Z,5.47
2022-10-28T04:35:42.887Z,4.32
2022-10-28T04:39:44.885Z,5.20
2022-10-28T04:43:46.825Z,4.55
2022-10-28T04:47:48.790Z,3.92
2022-10-28T04:51:50.749Z,3.10
2022-10-28T04:55:58.056Z,3.35
2022-10-28T05:04:01.671Z,2.47
2022-10-28T05:08:03.701Z,3.95
2022-10-28T05:12:06.889Z,2.95
2022-10-28T05:16:08.922Z,3.25
2022-10-28T05:20:12.481Z,3.08
2022-10-28T05:24:14.448Z,2.40
2022-10-28T05:28:16.676Z,2.78
2022-10-28T05:32:18.408Z,2.88
2022-10-28T05:36:20.297Z,3.10
2022-10-28T05:40:22.168Z,4.60
2022-10-28T05:44:24.316Z,3.08
2022-10-28T05:48:26.277Z,2.38
2022-10-28T05:52:28.453Z,2.60
2022-10-28T05:56:31.130Z,2.72
2022-10-28T06:00:33.137Z,2.33
2022-10-28T06:04:34.978Z,2.40
2022-10-28T06:08:37.207Z,2.22
2022-10-28T06:12:37.481Z,4.57
2022-10-28T06:16:39.370Z,3.80
2022-10-28T06:20:41.098Z,2.83
2022-10-28T06:24:43.144Z,3.70
2022-10-28T06:28:47.209Z,2.33
2022-10-28T06:32:49.216Z,2.13
2022-10-28T06:36:51.120Z,2.70
2022-10-28T06:40:55.764Z,2.50
2022-10-28T06:44:57.611Z,2.47
2022-10-28T06:49:04.907Z,4.20
2022-10-28T06:53:06.789Z,3.30
2022-10-28T06:57:08.731Z,3.35
2022-10-28T07:01:10.711Z,2.80
2022-10-28T07:05:12.502Z,4.95
2022-10-28T07:09:14.551Z,3.40
2022-10-28T07:13:16.208Z,2.65
2022-10-28T07:17:17.821Z,2.10
2022-10-28T07:21:21.713Z,4.60
2022-10-28T07:25:23.469Z,3.92
2022-10-28T07:29:25.119Z,3.03
2022-10-28T07:33:26.804Z,3.10
2022-10-28T07:37:28.509Z,2.47
2022-10-28T07:41:30.181Z,2.50
2022-10-28T07:45:31.864Z,3.05
2022-10-28T07:49:33.562Z,2.63
2022-10-28T07:53:35.264Z,3.78
2022-10-28T07:57:37.832Z,3.83
2022-10-28T08:01:39.855Z,4.07
2022-10-28T08:05:41.675Z,3.92
2022-10-28T08:09:43.512Z,3.30
2022-10-28T08:13:46.186Z,3.70
2022-10-28T08:17:51.667Z,3.28
2022-10-28T08:21:53.630Z,3.72
2022-10-28T08:25:55.617Z,4.10
2022-10-28T08:29:57.243Z,3.63
2022-10-28T08:33:58.968Z,5.00
2022-10-28T08:38:00.967Z,3.75
2022-10-28T08:42:15.793Z,2.47
2022-10-28T08:46:26.129Z,4.13
2022-10-28T08:50:32.005Z,4.70
2022-10-28T08:54:50.560Z,5.18
2022-10-28T08:58:56.884Z,4.45
2022-10-28T09:03:16.843Z,4.83
2022-10-28T09:07:21.622Z,4.30
2022-10-28T09:12:04.782Z,3.50
2022-10-28T09:16:12.497Z,6.13
2022-10-28T09:20:29.453Z,3.90
2022-10-28T09:24:41.550Z,5.63
2022-10-28T09:28:58.854Z,4.50
2022-10-28T09:33:06.563Z,3.55
2022-10-28T09:37:53.807Z,3.70
2022-10-28T09:42:00.882Z,7.03
2022-10-28T09:50:21.618Z,6.07
2022-10-28T09:54:33.407Z,6.40
2022-10-28T09:58:36.367Z,4.88
2022-10-28T10:02:40.257Z,5.65
2022-10-28T10:06:42.882Z,7.25
2022-10-28T10:10:52.992Z,5.75
2022-10-28T10:14:58.606Z,5.72
2022-10-28T10:19:03.275Z,7.13
2022-10-28T10:23:22.952Z,7.93
2022-10-28T10:27:26.318Z,7.85
2022-10-28T10:31:29.814Z,6.10
2022-10-28T10:35:35.104Z,6.35
2022-10-28T10:39:38.255Z,6.93
2022-10-28T10:43:40.024Z,6.25
2022-10-28T10:47:42.318Z,6.80
2022-10-28T10:51:52.203Z,7.45
2022-10-28T10:56:09.301Z,6.30
2022-10-28T11:00:16.833Z,7.30
2022-10-28T11:04:21.536Z,6.05
2022-10-28T11:08:40.677Z,6.10
2022-10-28T11:12:51.754Z,6.60
2022-10-28T11:16:59.190Z,5.03
2022-10-28T11:21:00.814Z,6.40
2022-10-28T11:25:32.928Z,5.82
2022-10-28T11:29:35.110Z,6.35
2022-10-28T11:34:35.530Z,6.05
2022-10-28T11:38:49.098Z,4.72
2022-10-28T11:42:59.494Z,5.70
2022-10-28T11:47:11.599Z,4.93
2022-10-28T11:51:46.684Z,5.80
2022-10-28T11:56:26.540Z,4.75
2022-10-28T12:00:46.794Z,5.40
2022-10-28T12:05:02.765Z,6.07
2022-10-28T12:09:13.487Z,5.20
2022-10-28T12:13:42.559Z,5.43
2022-10-28T12:18:14.183Z,4.95
2022-10-28T12:22:48.173Z,5.68
2022-10-28T12:27:00.191Z,5.50
2022-10-28T12:31:04.860Z,4.18
2022-10-28T12:35:16.101Z,4.30
2022-10-28T12:39:55.634Z,3.38
2022-10-28T12:44:00.038Z,4.10
2022-10-28T12:48:22.160Z,4.60
2022-10-28T12:52:31.221Z,3.92
2022-10-28T12:56:37.526Z,3.03
2022-10-28T13:00:47.037Z,2.78
2022-10-28T13:04:49.743Z,2.85
2022-10-28T13:09:22.412Z,3.22
2022-10-28T13:13:39.362Z,3.38
2022-10-28T13:18:06.864Z,2.65
2022-10-28T13:22:17.540Z,3.00
2022-10-28T13:26:22.443Z,3.00
2022-10-28T13:30:25.119Z,2.67
2022-10-28T13:34:45.018Z,2.60
2022-10-28T13:38:53.568Z,1.83
2022-10-28T13:42:55.542Z,2.40
2022-10-28T13:47:00.219Z,2.58
2022-10-28T13:51:10.847Z,2.58
2022-10-28T13:55:24.637Z,2.65
2022-10-28T13:59:34.933Z,2.40
2022-10-28T14:03:36.903Z,2.70
2022-10-28T14:07:53.123Z,2.92
2022-10-28T14:12:33.843Z,2.42
2022-10-28T14:16:40.361Z,2.38
2022-10-28T14:20:58.775Z,2.83
2022-10-28T14:25:00.822Z,2.78
2022-10-28T14:29:23.475Z,3.55
2022-10-28T14:33:25.195Z,4.50
2022-10-28T14:38:04.528Z,6.93
2022-10-28T14:42:15.318Z,2.92
2022-10-28T14:46:25.523Z,3.17
2022-10-28T14:50:32.965Z,2.83
2022-10-28T14:54:44.285Z,2.78
2022-10-28T14:58:46.243Z,2.30
2022-10-28T15:02:48.351Z,2.10
2022-10-28T15:06:52.517Z,2.45
2022-10-28T15:10:54.260Z,2.13
2022-10-28T15:14:57.090Z,2.10
2022-10-28T15:18:58.809Z,2.80
2022-10-28T15:23:12.636Z,3.08
2022-10-28T15:27:15.240Z,2.65
2022-10-28T15:31:17.757Z,2.70
2022-10-28T15:35:29.954Z,3.08
2022-10-28T15:39:31.993Z,2.70
2022-10-28T15:43:33.773Z,3.08
2022-10-28T15:47:37.347Z,2.42
2022-10-28T15:51:39.163Z,3.10
2022-10-28T15:56:02.930Z,3.13
2022-10-28T16:00:26.289Z,2.58
2022-10-28T16:04:42.921Z,2.53
2022-10-28T16:08:44.785Z,2.37
2022-10-28T16:12:46.517Z,2.50
2022-10-28T16:16:48.301Z,2.17
2022-10-28T16:20:50.580Z,2.13
2022-10-28T16:24:53.598Z,2.40
2022-10-28T16:28:56.263Z,2.08
2022-10-28T16:32:58.161Z,1.80
2022-10-28T16:36:59.868Z,1.85
2022-10-28T16:41:03.690Z,1.83
2022-10-28T16:45:06.038Z,1.70
2022-10-28T16:49:07.799Z,2.03
2022-10-28T16:53:12.723Z,2.40
2022-10-28T16:57:15.006Z,2.85
2022-10-28T17:01:20.936Z,1.90
2022-10-28T17:05:23.921Z,3.58
2022-10-28T17:09:25.627Z,2.85
2022-10-28T17:13:27.453Z,2.65
2022-10-28T17:17:29.220Z,2.70
2022-10-28T17:21:30.949Z,3.45
2022-10-28T17:25:32.715Z,3.33
2022-10-28T17:29:34.968Z,2.83
2022-10-28T17:33:36.952Z,2.90
2022-10-28T17:37:38.695Z,2.75
2022-10-28T17:41:40.570Z,2.70
2022-10-28T17:45:42.334Z,2.70
2022-10-28T17:49:44.069Z,2.83
2022-10-28T17:53:45.798Z,2.25
2022-10-28T17:57:47.585Z,3.10
2022-10-28T18:01:49.468Z,2.47
2022-10-28T18:05:51.516Z,2.10
2022-10-28T18:09:53.323Z,1.85
2022-10-28T18:13:56.338Z,2.78
2022-10-28T18:17:58.165Z,2.63
2022-10-28T18:22:00.033Z,2.90
2022-10-28T18:26:03.036Z,3.58
2022-10-28T18:30:05.229Z,2.92
2022-10-28T18:34:07.053Z,2.40
2022-10-28T18:38:08.839Z,2.00
2022-10-28T18:42:12.369Z,3.28
2022-10-28T18:46:14.769Z,2.80
2022-10-28T18:50:16.716Z,2.28
2022-10-28T18:54:18.438Z,3.53
2022-10-28T18:58:20.163Z,3.50
2022-10-28T19:02:21.976Z,4.18
2022-10-28T19:06:26.056Z,3.00
2022-10-28T19:10:27.740Z,3.60
2022-10-28T19:14:29.457Z,2.53
2022-10-28T19:18:35.385Z,4.18
2022-10-28T19:22:37.084Z,3.05
2022-10-28T19:26:39.411Z,2.90
2022-10-28T19:30:41.029Z,3.80
2022-10-28T19:34:42.738Z,4.43
2022-10-28T19:38:45.702Z,4.03
2022-10-28T19:42:47.384Z,3.80
2022-10-28T19:46:49.094Z,4.63
2022-10-28T19:50:50.825Z,3.97
2022-10-28T19:54:52.523Z,3.75
2022-10-28T19:58:56.868Z,2.95
2022-10-28T20:02:58.506Z,3.25
2022-10-28T20:07:00.247Z,4.07
2022-10-28T20:11:06.002Z,3.05
2022-10-28T20:15:08.038Z,3.85
2022-10-28T20:19:10.436Z,2.85
2022-10-28T20:23:12.252Z,2.65
2022-10-28T20:27:13.894Z,3.05
2022-10-28T20:31:17.946Z,2.85
2022-10-28T20:35:19.574Z,2.40
2022-10-28T20:39:21.349Z,2.58
2022-10-28T20:43:25.107Z,2.97
2022-10-28T20:47:26.803Z,3.60
2022-10-28T20:51:31.103Z,3.78
2022-10-28T20:55:32.737Z,4.13
2022-10-28T20:59:34.344Z,4.78
2022-10-28T21:03:35.991Z,3.88
2022-10-28T21:07:37.800Z,4.20
2022-10-28T21:11:39.566Z,6.22
2022-10-28T21:15:43.796Z,5.82
2022-10-28T21:19:45.478Z,3.33
2022-10-28T21:23:47.218Z,3.00
2022-10-28T21:27:48.842Z,4.13
2022-10-28T21:31:50.551Z,4.28
2022-10-28T21:35:59.495Z,3.15
2022-10-28T21:40:01.375Z,3.72
2022-10-28T21:44:04.591Z,3.53
2022-10-28T21:48:06.577Z,3.45
2022-10-28T21:52:08.835Z,3.47
2022-10-28T21:56:20.234Z,3.55
2022-10-28T22:00:22.019Z,2.97
2022-10-28T22:04:23.708Z,4.50
2022-10-28T22:08:25.883Z,4.63
2022-10-28T22:12:29.909Z,5.75
2022-10-28T22:16:33.989Z,4.53
2022-10-28T22:20:35.658Z,7.60
2022-10-28T22:24:37.307Z,7.18
2022-10-28T22:28:39.596Z,7.35
2022-10-28T22:32:41.299Z,5.22
2022-10-28T22:36:44.897Z,4.28
2022-10-28T22:40:46.531Z,5.50
2022-10-28T22:44:48.210Z,4.22
2022-10-28T22:48:50.054Z,4.22
2022-10-28T22:52:51.878Z,3.53
2022-10-28T22:56:53.555Z,3.80
2022-10-28T23:01:12.069Z,3.45
2022-10-28T23:05:13.986Z,3.38
2022-10-28T23:09:15.723Z,3.92
2022-10-28T23:13:17.430Z,4.07
2022-10-28T23:17:19.096Z,5.22
2022-10-28T23:21:23.090Z,5.43
2022-10-28T23:25:24.755Z,7.88
2022-10-28T23:29:26.379Z,4.82
2022-10-28T23:33:30.029Z,5.05
2022-10-28T23:37:32.243Z,5.85
2022-10-28T23:41:33.853Z,5.05
2022-10-28T23:45:35.634Z,5.15
2022-10-28T23:49:37.296Z,5.45
2022-10-28T23:53:38.934Z,5.32
2022-10-28T23:57:40.569Z,4.90
